Terminal Aerodrome Forecast
Issued by NWS

Home | Current Version | Previous Version | Text Only | Print | Product List | Glossary On
Versions: 1 2 3 4 5 6 7 8 9 10 11 12 13 14 15 16 17 18 19 20 21 22 23 24 25 26 27 28 29 30
000
FTUS44 KFWD 271127
TAFFTW
TAF
KFTW 271127Z 2712/2812 27006KT P6SM FEW250
     FM271500 33011KT P6SM FEW250
     FM272300 03007KT P6SM SCT250
     FM280500 09006KT P6SM SCT250
     FM280900 15007KT P6SM SCT120=

USA.gov is the U.S. government's official web portal to all federal, state and local government web resources and services.